NCAR-RAP Real-Time Weather Data

Output produced by METARs form (23 June 2018  19:28 UTC)
found at http://weather.rap.ucar.edu/surface/
 
RJDT 231100Z 23003KT 160V270 9999 FEW015 20/18 Q1005
RJDT 231000Z 23003KT 190V300 9999 FEW025 22/17 Q1004
RJDT 230900Z 27008KT 240V340 9999 FEW025 SCT/// 23/17 Q1004
RJDT 230800Z 27009KT 240V320 9999 FEW025 BKN/// 24/17 Q1004
RJDT 230700Z 28006KT 230V330 9999 FEW025 BKN/// 24/17 Q1004
RJDT 230600Z 27007KT 200V330 9999 FEW020 BKN090 BKN/// 23/18 Q1004
RJDT 230500Z 30008KT 260V320 9999 FEW020 SCT050 BKN060 22/18 Q1004
RJDT 230400Z 31010KT 270V340 CAVOK 22/17 Q1004
RJDT 230300Z 31006KT CAVOK 22/16 Q1005
RJDT 230200Z 30005KT CAVOK 20/17 Q1005
RJDT 230100Z 29006KT 240V330 9999 FEW030 BKN060 BKN080 19/16 Q1006
RJDT 230000Z 30006KT 250V330 9999 -RA FEW015 SCT080 OVC100 19/17 Q1006
RJDT 222300Z 28010KT 250V310 9000 -RA FEW015 SCT090 OVC110 19/17 Q1006
RJDT 222230Z 27010KT 250V310 9999 -RA FEW015 SCT100 OVC120 20/18 Q1005
RJDT 221100Z VRB01KT CAVOK 22/21 Q1008
RJDT 221000Z VRB02KT CAVOK 22/21 Q1008
RJDT 220900Z VRB02KT CAVOK 23/21 Q1007
RJDT 220800Z 35005KT CAVOK 24/21 Q1007
RJDT 220700Z 34007KT 9999 FEW020 BKN/// 25/21 Q1008
RJDT 220600Z 15004KT 110V200 9999 FEW020 SCT150 BKN/// 25/21 Q1008
RJDT 220500Z 15004KT 110V210 9999 FEW030 BKN/// 24/20 Q1008
RJDT 220400Z 15005KT 100V200 9999 FEW030 BKN/// 24/21 Q1008
RJDT 220300Z 13005KT 100V170 9999 FEW030 BKN/// 26/21 Q1009
RJDT 220200Z 13003KT 030V200 9999 FEW030 BKN/// 26/19 Q1009
RJDT 220100Z 16004KT 110V240 CAVOK 24/20 Q1009
RJDT 220000Z VRB03KT CAVOK 24/20 Q1009
RJDT 212300Z VRB01KT 9999 FEW030 BKN/// 22/19 Q1009
RJDT 212230Z VRB01KT 9999 FEW030 BKN/// 21/20 Q1009
RJDT 211100Z 25003KT 190V320 CAVOK 24/14 Q1007
RJDT 211000Z VRB03KT CAVOK 25/16 Q1006
RJDT 210900Z VRB03KT CAVOK 27/15 Q1006
RJDT 210800Z 14004KT 100V170 CAVOK 26/19 Q1006